MacCan, Canada
Current Conditions -  °F | °C
As of 6:00 PM on Sunday 23 Nov 2014 (Local Time) from CYQM Reporting Station
Scattered Clouds Scattered Clouds  
Wind Chill: 34°   Ceiling: Unl
Heat Index: 37°   Visibility: 15mi
Dew Point: 27°   Wind: 5mph
Humidity: 65%   Direction: 220°SW
Pressure: 30.11"   Gusts: NA
Location:  45.72°N, 64.25°W
Report Text: CYQM 232200Z 22004KT 15SM FEW048 SCT240 03/M03 A3011 RMK SC2CI2 SLP198
Loading
Personal Weather Stations






























Interactive Weather Map New forecast layout! Learn more

10-Day Weather Forecast

Advertisements
Track Severe Weather on mobile